x

Nantucket Sound (44020) Wave Buoy

6:50pm - Fri 17th Nov 2017 All times are EST. -5 hours from GMT.

  • Sig Wave height 2.3ft
  • Swell Direction
  • Peak Period 4s
  • Average Period 3s
  • Wind
    22mph, 27mph gusts
  • Sea Temp 49°f
  • Air Temp 43°f
  • Sea Pressure 1014.2mb
  • Nantucket Sound
  • Nantucket Sound

More Historic Weather Station data

Upgrade to MSW Pro to gain access to the past 30 days of data for over 8000 Wavebouys and Weather Stations around the globe.

Join

Comparision Forecast

View Surf forecast
   
Fri 11/17 6:50pm 2.5ft 4s 3s 22 27 mph 1014.2mb 49f 43f
5:50pm 2.5ft 4s 3s 22 29 mph 1014mb 49f 44f
4:50pm 2.5ft 4s 4s 25 29 mph 1012.9mb 49f 44f
3:50pm 3.5ft 5s 4s 25 27 mph 1012.1mb 49f 45f
2:50pm 3.5ft 4s 4s 22 27 mph 1011.2mb 49f 44f
1:50pm 3.5ft 5s 4s 22 27 mph 1010.6mb 49f 44f
12:50pm 4ft 5s 4s 22 29 mph 1010.4mb 49f 43f
11:50am 3.5ft 5s 4s 25 29 mph 1010.4mb 50f 42f
10:50am 4ft 5s 4s 27 31 mph 1010.5mb 51f 42f
9:50am 3.5ft 4s 4s 29 36 mph 1010.4mb 51f 42f
8:50am 3.5ft 4s 4s 27 31 mph 1010.1mb 51f 42f
7:50am 3.5ft 4s 4s 29 34 mph 1009.4mb 50f 42f
6:50am 3.5ft 4s 4s 29 36 mph 1008.5mb 50f 43f
5:50am 3.5ft 4s 4s 29 36 mph 1007.4mb 50f 44f
4:50am 3.5ft 5s 4s 29 38 mph 1006.7mb 49f 44f
3:50am 3.5ft 5s 4s 29 36 mph 1006.3mb 49f 44f
2:50am 3.5ft 5s 4s 27 38 mph 1006mb 49f 45f
1:50am 3.5ft 5s 4s 27 34 mph 1005.7mb 50f 46f
12:50am 4ft 5s 4s 25 31 mph 1005.5mb 50f 47f
Thu 11/16 11:50pm 3.5ft 5s 4s 29 36 mph 1005mb 50f 47f
10:50pm 2.5ft 4s 4s 27 34 mph 1004.9mb 51f 48f
9:50pm 2.5ft 4s 4s 22 27 mph 1005.5mb 51f 48f
8:50pm 2.5ft 4s 3s 22 27 mph 1005.9mb 51f 49f
7:50pm 1.6ft 3s 3s 29 34 mph 1005mb 51f 50f
6:50pm 1.6ft 3s 3s 16 18 mph 1005.3mb 50f 50f
5:50pm 2.5ft 3s 3s 16 16 mph 1005.3mb 50f 49f
4:50pm 2.5ft 3s 3s 20 25 mph 1003.9mb 50f 49f
3:50pm 2.5ft 5s 4s 13 16 mph 1003.1mb 50f 52f
2:50pm 3ft 4s 4s 20 25 mph 1003.4mb 50f 50f
1:50pm 3ft 4s 4s 25 34 mph 1004.7mb 50f 50f
12:50pm 2.5ft 4s 4s 20 25 mph 1007.3mb 50f 49f
10:50am 3ft 4s 4s 20 25 mph 1011.9mb 51f 49f
9:50am 2.5ft 3s 4s 20 25 mph 1013mb 51f 49f
8:50am 2.5ft 3s 4s 20 25 mph 1014.2mb 51f 48f
7:50am 1.6ft 4s 4s 22 25 mph 1014.7mb 51f 48f
6:50am 1.6ft 4s 4s 18 20 mph 1015.6mb 51f 48f
5:50am 1.3ft 4s 4s 16 18 mph 1016.5mb 50f 47f
4:50am 1.3ft 3s 4s 16 18 mph 1017mb 50f 47f
3:50am 1.3ft 13s 4s 13 16 mph 1017.4mb 50f 47f
2:50am 1.3ft 5s 4s 11 11 mph 1018.3mb 50f 47f
1:50am 1.3ft 11s 5s 9 11 mph 1019.1mb 50f 46f
12:50am 1.6ft 11s 5s 7 9 mph 1019.6mb 50f 46f
Wed 11/15 11:50pm 1.6ft 4s 4s 7 9 mph 1020.3mb 50f 45f
10:50pm 1.6ft 10s 4s 11 13 mph 1020.4mb 51f 44f
9:50pm 1.6ft 4s 4s 9 11 mph 1021.5mb 51f 44f
8:50pm 1.6ft 4s 4s 9 11 mph 1021.9mb 51f 44f
7:50pm 1.3ft 10s 4s 11 13 mph 1022.2mb 51f 44f
6:50pm 1.3ft 3s 4s 9 11 mph 1022.6mb 50f 44f
5:50pm 1.3ft 4s 4s 11 13 mph 1022.8mb 50f 43f
4:50pm 1.6ft 4s 4s 11 13 mph 1022.9mb 50f 43f
3:50pm 1.3ft 5s 4s 13 16 mph 1022.3mb 50f 44f
2:50pm 1.6ft 4s 4s 9 13 mph 1023mb 50f 44f
1:50pm 2ft 3s 4s 11 16 mph 1022.8mb 50f 44f
12:50pm 2.5ft 3s 4s 13 18 mph 1023.1mb 50f 44f
11:50am 2.5ft 4s 4s 13 18 mph 1023.7mb 50f 44f
10:50am 2.5ft 3s 4s 18 20 mph 1024.7mb 51f 44f
9:50am 2.5ft 3s 4s 18 20 mph 1025.2mb 51f 44f
8:50am 2.5ft 3s 4s 18 22 mph 1025mb 51f 44f
7:50am 2.5ft 3s 4s 20 22 mph 1024.9mb 51f 44f
6:50am 2ft 3s 3s 18 22 mph 1024.7mb 51f 43f
5:50am 2ft 3s 3s 20 22 mph 1024.3mb 50f 44f
4:50am 1.6ft 3s 4s 16 18 mph 1024.3mb 50f 44f
3:50am 2ft 3s 4s 16 20 mph 1024mb 50f 44f
2:50am 2ft 3s 4s 18 20 mph 1024mb 50f 44f
1:50am 2.5ft 4s 4s 16 20 mph 1024.5mb 50f 44f
12:50am 2.5ft 3s 4s 16 20 mph 1024.4mb 50f 44f
Tue 11/14 11:50pm 2.5ft 3s 4s 20 22 mph 1024.2mb 50f 44f
10:50pm 3ft 3s 4s 18 22 mph 1024mb 50f 45f
9:50pm 2.5ft 4s 4s 22 27 mph 1023.9mb 51f 45f
8:50pm 2.5ft 7s 4s 22 25 mph 1023.9mb 51f 45f
7:50pm 2.5ft 3s 4s 18 22 mph 1024.1mb 51f 45f
6:50pm 2.5ft 4s 4s 18 22 mph 1024.5mb 51f 45f
5:50pm 2.5ft 4s 4s 20 25 mph 1024.5mb 51f 45f
4:50pm 2.5ft 4s 4s 20 25 mph 1024.4mb 51f 44f
3:50pm 2.5ft 4s 4s 20 22 mph 1024mb 50f 45f
2:50pm 2.5ft 4s 4s 18 20 mph 1024mb 50f 45f
1:50pm 2.5ft 4s 4s 16 20 mph 1024.2mb 50f 45f
12:50pm 2.5ft 4s 4s 16 18 mph 1024.6mb 50f 45f
11:50am 2.5ft 4s 4s 16 20 mph 1024.7mb 50f 45f
10:50am 2.5ft 3s 4s 18 20 mph 1025.2mb 51f 45f
9:50am 3ft 3s 4s 18 22 mph 1025.3mb 52f 45f
8:50am 2.5ft 7s 4s 18 22 mph 1025.3mb 52f 46f
7:50am 2.5ft 3s 4s 20 22 mph 1024.9mb 52f 46f
6:50am 2.5ft 3s 4s 22 27 mph 1024.2mb 52f 46f
5:50am 2.5ft 4s 4s 18 20 mph 1023.8mb 52f 47f
4:50am 2.5ft 4s 4s 18 22 mph 1023.6mb 52f 47f
3:50am 2.5ft 4s 4s 20 25 mph 1023mb 51f 47f
2:50am 2.5ft 4s 4s 22 25 mph 1022.7mb 51f 48f
1:50am 2ft 3s 3s 20 25 mph 1022.7mb 51f 49f